sensor_id;sensor_type;location;lat;lon;timestamp;P1;durP1;ratioP1;P2;durP2;ratioP2
17398;SDS011;8817;48.170;8.592;2023-03-14T00:01:55;3.90;;;3.80;;
17398;SDS011;8817;48.170;8.592;2023-03-14T00:04:21;3.80;;;3.80;;
17398;SDS011;8817;48.170;8.592;2023-03-14T00:06:48;3.80;;;3.80;;
17398;SDS011;8817;48.170;8.592;2023-03-14T00:09:17;3.70;;;3.70;;
17398;SDS011;8817;48.170;8.592;2023-03-14T00:11:44;3.67;;;3.67;;
17398;SDS011;8817;48.170;8.592;2023-03-14T00:14:11;3.80;;;3.80;;
17398;SDS011;8817;48.170;8.592;2023-03-14T00:16:40;3.80;;;3.60;;
17398;SDS011;8817;48.170;8.592;2023-03-14T00:19:07;4.30;;;4.00;;
17398;SDS011;8817;48.170;8.592;2023-03-14T00:21:34;3.77;;;3.70;;
17398;SDS011;8817;48.170;8.592;2023-03-14T00:24:01;3.83;;;3.73;;
17398;SDS011;8817;48.170;8.592;2023-03-14T00:26:29;3.60;;;3.60;;
17398;SDS011;8817;48.170;8.592;2023-03-14T00:28:56;4.00;;;3.90;;
17398;SDS011;8817;48.170;8.592;2023-03-14T00:31:23;3.90;;;3.80;;
17398;SDS011;8817;48.170;8.592;2023-03-14T00:33:50;3.80;;;3.70;;
17398;SDS011;8817;48.170;8.592;2023-03-14T00:36:18;3.70;;;3.60;;
17398;SDS011;8817;48.170;8.592;2023-03-14T00:38:46;3.57;;;3.57;;
17398;SDS011;8817;48.170;8.592;2023-03-14T00:41:14;3.60;;;3.60;;
17398;SDS011;8817;48.170;8.592;2023-03-14T00:43:44;3.60;;;3.60;;
17398;SDS011;8817;48.170;8.592;2023-03-14T00:46:11;3.73;;;3.73;;
17398;SDS011;8817;48.170;8.592;2023-03-14T00:48:39;3.70;;;3.70;;
17398;SDS011;8817;48.170;8.592;2023-03-14T00:51:06;3.70;;;3.70;;
17398;SDS011;8817;48.170;8.592;2023-03-14T00:53:35;3.63;;;3.63;;
17398;SDS011;8817;48.170;8.592;2023-03-14T00:56:03;3.80;;;3.80;;
17398;SDS011;8817;48.170;8.592;2023-03-14T00:58:31;3.80;;;3.80;;
17398;SDS011;8817;48.170;8.592;2023-03-14T01:00:59;3.80;;;3.80;;
17398;SDS011;8817;48.170;8.592;2023-03-14T01:03:30;3.90;;;3.90;;
17398;SDS011;8817;48.170;8.592;2023-03-14T01:06:06;3.90;;;3.90;;
17398;SDS011;8817;48.170;8.592;2023-03-14T01:08:33;3.80;;;3.80;;
17398;SDS011;8817;48.170;8.592;2023-03-14T01:11:04;3.70;;;3.60;;
17398;SDS011;8817;48.170;8.592;2023-03-14T01:13:32;3.60;;;3.60;;
17398;SDS011;8817;48.170;8.592;2023-03-14T01:16:02;3.60;;;3.60;;
17398;SDS011;8817;48.170;8.592;2023-03-14T01:18:30;3.80;;;3.80;;
17398;SDS011;8817;48.170;8.592;2023-03-14T01:20:57;3.70;;;3.70;;
17398;SDS011;8817;48.170;8.592;2023-03-14T01:23:24;3.70;;;3.70;;
17398;SDS011;8817;48.170;8.592;2023-03-14T01:25:51;3.63;;;3.63;;
17398;SDS011;8817;48.170;8.592;2023-03-14T01:28:18;3.70;;;3.70;;
17398;SDS011;8817;48.170;8.592;2023-03-14T01:30:45;3.60;;;3.60;;
17398;SDS011;8817;48.170;8.592;2023-03-14T01:33:13;3.63;;;3.63;;
17398;SDS011;8817;48.170;8.592;2023-03-14T01:35:40;4.07;;;3.80;;
17398;SDS011;8817;48.170;8.592;2023-03-14T01:38:07;4.00;;;3.90;;
17398;SDS011;8817;48.170;8.592;2023-03-14T01:40:34;4.00;;;3.80;;
17398;SDS011;8817;48.170;8.592;2023-03-14T01:43:13;3.77;;;3.77;;
17398;SDS011;8817;48.170;8.592;2023-03-14T01:48:46;3.70;;;3.70;;
17398;SDS011;8817;48.170;8.592;2023-03-14T01:51:19;3.67;;;3.67;;
17398;SDS011;8817;48.170;8.592;2023-03-14T01:53:50;3.80;;;3.80;;
17398;SDS011;8817;48.170;8.592;2023-03-14T01:56:18;3.80;;;3.80;;
17398;SDS011;8817;48.170;8.592;2023-03-14T01:58:46;3.70;;;3.53;;
17398;SDS011;8817;48.170;8.592;2023-03-14T02:01:16;3.80;;;3.80;;
17398;SDS011;8817;48.170;8.592;2023-03-14T02:03:49;3.70;;;3.70;;
17398;SDS011;8817;48.170;8.592;2023-03-14T02:06:21;3.67;;;3.67;;
17398;SDS011;8817;48.170;8.592;2023-03-14T02:08:50;3.80;;;3.80;;
17398;SDS011;8817;48.170;8.592;2023-03-14T02:11:17;3.70;;;3.70;;
17398;SDS011;8817;48.170;8.592;2023-03-14T02:13:45;3.60;;;3.60;;
17398;SDS011;8817;48.170;8.592;2023-03-14T02:16:12;3.60;;;3.50;;
17398;SDS011;8817;48.170;8.592;2023-03-14T02:18:39;3.70;;;3.70;;
17398;SDS011;8817;48.170;8.592;2023-03-14T02:21:11;3.63;;;3.63;;
17398;SDS011;8817;48.170;8.592;2023-03-14T02:23:45;3.60;;;3.60;;
17398;SDS011;8817;48.170;8.592;2023-03-14T02:26:19;3.50;;;3.50;;
17398;SDS011;8817;48.170;8.592;2023-03-14T02:28:51;3.60;;;3.60;;
17398;SDS011;8817;48.170;8.592;2023-03-14T02:31:19;3.60;;;3.60;;
17398;SDS011;8817;48.170;8.592;2023-03-14T02:33:47;3.50;;;3.50;;
17398;SDS011;8817;48.170;8.592;2023-03-14T02:36:14;3.57;;;3.57;;
17398;SDS011;8817;48.170;8.592;2023-03-14T02:38:44;3.57;;;3.57;;
17398;SDS011;8817;48.170;8.592;2023-03-14T02:41:13;3.50;;;3.50;;
17398;SDS011;8817;48.170;8.592;2023-03-14T02:43:40;3.40;;;3.40;;
17398;SDS011;8817;48.170;8.592;2023-03-14T02:46:09;3.43;;;3.43;;
17398;SDS011;8817;48.170;8.592;2023-03-14T02:48:39;3.80;;;3.60;;
17398;SDS011;8817;48.170;8.592;2023-03-14T02:51:11;3.37;;;3.37;;
17398;SDS011;8817;48.170;8.592;2023-03-14T02:53:39;3.40;;;3.40;;
17398;SDS011;8817;48.170;8.592;2023-03-14T02:56:08;3.63;;;3.60;;
17398;SDS011;8817;48.170;8.592;2023-03-14T02:58:35;3.40;;;3.40;;
17398;SDS011;8817;48.170;8.592;2023-03-14T03:01:03;3.37;;;3.37;;
17398;SDS011;8817;48.170;8.592;2023-03-14T03:03:31;3.33;;;3.30;;
17398;SDS011;8817;48.170;8.592;2023-03-14T03:05:59;3.60;;;3.50;;
17398;SDS011;8817;48.170;8.592;2023-03-14T03:08:26;3.40;;;3.40;;
17398;SDS011;8817;48.170;8.592;2023-03-14T03:10:54;3.50;;;3.40;;
17398;SDS011;8817;48.170;8.592;2023-03-14T03:13:22;3.50;;;3.40;;
17398;SDS011;8817;48.170;8.592;2023-03-14T03:15:50;3.30;;;3.30;;
17398;SDS011;8817;48.170;8.592;2023-03-14T03:18:17;3.70;;;3.60;;
17398;SDS011;8817;48.170;8.592;2023-03-14T03:20:45;3.30;;;3.30;;
17398;SDS011;8817;48.170;8.592;2023-03-14T03:23:12;3.30;;;3.30;;
17398;SDS011;8817;48.170;8.592;2023-03-14T03:25:39;3.30;;;3.20;;
17398;SDS011;8817;48.170;8.592;2023-03-14T03:28:06;3.70;;;3.50;;
17398;SDS011;8817;48.170;8.592;2023-03-14T03:30:34;3.40;;;3.30;;
17398;SDS011;8817;48.170;8.592;2023-03-14T03:33:03;3.27;;;3.27;;
17398;SDS011;8817;48.170;8.592;2023-03-14T03:35:30;3.77;;;3.23;;
17398;SDS011;8817;48.170;8.592;2023-03-14T03:37:59;3.40;;;3.40;;
17398;SDS011;8817;48.170;8.592;2023-03-14T03:40:26;3.50;;;3.40;;
17398;SDS011;8817;48.170;8.592;2023-03-14T03:42:53;3.20;;;3.20;;
17398;SDS011;8817;48.170;8.592;2023-03-14T03:45:19;3.10;;;3.10;;
17398;SDS011;8817;48.170;8.592;2023-03-14T03:47:46;3.10;;;3.10;;
17398;SDS011;8817;48.170;8.592;2023-03-14T03:50:13;3.40;;;3.20;;
17398;SDS011;8817;48.170;8.592;2023-03-14T03:52:40;3.10;;;3.10;;
17398;SDS011;8817;48.170;8.592;2023-03-14T03:55:08;3.30;;;3.30;;
17398;SDS011;8817;48.170;8.592;2023-03-14T03:57:35;3.20;;;3.20;;
17398;SDS011;8817;48.170;8.592;2023-03-14T04:00:03;3.27;;;3.27;;
17398;SDS011;8817;48.170;8.592;2023-03-14T04:02:31;3.20;;;3.20;;
17398;SDS011;8817;48.170;8.592;2023-03-14T04:04:58;3.30;;;3.20;;
17398;SDS011;8817;48.170;8.592;2023-03-14T04:07:25;3.20;;;3.20;;
17398;SDS011;8817;48.170;8.592;2023-03-14T04:09:52;3.30;;;3.30;;
17398;SDS011;8817;48.170;8.592;2023-03-14T04:12:20;3.43;;;3.30;;
17398;SDS011;8817;48.170;8.592;2023-03-14T04:14:47;3.40;;;3.30;;
17398;SDS011;8817;48.170;8.592;2023-03-14T04:17:13;3.40;;;3.40;;
17398;SDS011;8817;48.170;8.592;2023-03-14T04:19:40;3.40;;;3.40;;
17398;SDS011;8817;48.170;8.592;2023-03-14T04:22:07;3.23;;;3.20;;
17398;SDS011;8817;48.170;8.592;2023-03-14T04:24:41;3.40;;;3.40;;
17398;SDS011;8817;48.170;8.592;2023-03-14T04:27:08;3.50;;;3.50;;
17398;SDS011;8817;48.170;8.592;2023-03-14T04:29:36;3.30;;;3.30;;
17398;SDS011;8817;48.170;8.592;2023-03-14T04:32:03;3.30;;;3.30;;
17398;SDS011;8817;48.170;8.592;2023-03-14T04:34:30;3.60;;;3.50;;
17398;SDS011;8817;48.170;8.592;2023-03-14T04:36:57;3.60;;;3.50;;
17398;SDS011;8817;48.170;8.592;2023-03-14T04:39:24;3.30;;;3.30;;
17398;SDS011;8817;48.170;8.592;2023-03-14T04:41:51;3.33;;;3.30;;
17398;SDS011;8817;48.170;8.592;2023-03-14T04:44:18;3.73;;;3.63;;
17398;SDS011;8817;48.170;8.592;2023-03-14T04:46:46;3.80;;;3.50;;
17398;SDS011;8817;48.170;8.592;2023-03-14T04:49:13;3.67;;;3.57;;
17398;SDS011;8817;48.170;8.592;2023-03-14T04:51:40;3.70;;;3.60;;
17398;SDS011;8817;48.170;8.592;2023-03-14T04:54:07;3.60;;;3.50;;
17398;SDS011;8817;48.170;8.592;2023-03-14T04:56:34;4.10;;;3.40;;
17398;SDS011;8817;48.170;8.592;2023-03-14T04:59:02;3.60;;;3.40;;
17398;SDS011;8817;48.170;8.592;2023-03-14T05:01:29;3.70;;;3.70;;
17398;SDS011;8817;48.170;8.592;2023-03-14T05:03:57;4.03;;;3.90;;
17398;SDS011;8817;48.170;8.592;2023-03-14T05:06:24;3.63;;;3.63;;
17398;SDS011;8817;48.170;8.592;2023-03-14T05:08:51;3.60;;;3.60;;
17398;SDS011;8817;48.170;8.592;2023-03-14T05:11:18;3.40;;;3.40;;
17398;SDS011;8817;48.170;8.592;2023-03-14T05:13:45;3.60;;;3.60;;
17398;SDS011;8817;48.170;8.592;2023-03-14T05:16:12;3.40;;;3.40;;
17398;SDS011;8817;48.170;8.592;2023-03-14T05:18:39;3.47;;;3.40;;
17398;SDS011;8817;48.170;8.592;2023-03-14T05:21:07;3.70;;;3.60;;
17398;SDS011;8817;48.170;8.592;2023-03-14T05:23:34;3.77;;;3.67;;
17398;SDS011;8817;48.170;8.592;2023-03-14T05:26:01;3.40;;;3.40;;
17398;SDS011;8817;48.170;8.592;2023-03-14T05:28:28;3.63;;;3.63;;
17398;SDS011;8817;48.170;8.592;2023-03-14T05:30:54;3.60;;;3.60;;
17398;SDS011;8817;48.170;8.592;2023-03-14T05:33:21;3.80;;;3.53;;
17398;SDS011;8817;48.170;8.592;2023-03-14T05:35:48;3.93;;;3.60;;
17398;SDS011;8817;48.170;8.592;2023-03-14T05:38:16;3.60;;;3.50;;
17398;SDS011;8817;48.170;8.592;2023-03-14T05:40:44;3.60;;;3.50;;
17398;SDS011;8817;48.170;8.592;2023-03-14T05:43:11;3.60;;;3.60;;
17398;SDS011;8817;48.170;8.592;2023-03-14T05:45:40;3.87;;;3.57;;
17398;SDS011;8817;48.170;8.592;2023-03-14T05:48:07;3.80;;;3.73;;
17398;SDS011;8817;48.170;8.592;2023-03-14T05:50:34;3.60;;;3.60;;
17398;SDS011;8817;48.170;8.592;2023-03-14T05:53:01;3.60;;;3.60;;
17398;SDS011;8817;48.170;8.592;2023-03-14T05:55:30;3.80;;;3.80;;
17398;SDS011;8817;48.170;8.592;2023-03-14T05:57:57;4.03;;;3.93;;
17398;SDS011;8817;48.170;8.592;2023-03-14T06:00:24;3.97;;;3.90;;
17398;SDS011;8817;48.170;8.592;2023-03-14T06:02:50;4.20;;;4.10;;
17398;SDS011;8817;48.170;8.592;2023-03-14T06:05:17;4.00;;;3.90;;
17398;SDS011;8817;48.170;8.592;2023-03-14T06:07:44;3.80;;;3.80;;
17398;SDS011;8817;48.170;8.592;2023-03-14T06:10:11;3.80;;;3.80;;
17398;SDS011;8817;48.170;8.592;2023-03-14T06:12:40;4.50;;;4.30;;
17398;SDS011;8817;48.170;8.592;2023-03-14T06:15:07;4.10;;;4.00;;
17398;SDS011;8817;48.170;8.592;2023-03-14T06:17:34;4.10;;;4.10;;
17398;SDS011;8817;48.170;8.592;2023-03-14T06:20:01;4.10;;;4.00;;
17398;SDS011;8817;48.170;8.592;2023-03-14T06:22:28;4.20;;;4.00;;
17398;SDS011;8817;48.170;8.592;2023-03-14T06:24:55;4.13;;;4.10;;
17398;SDS011;8817;48.170;8.592;2023-03-14T06:27:22;3.93;;;3.93;;
17398;SDS011;8817;48.170;8.592;2023-03-14T06:29:50;3.80;;;3.80;;
17398;SDS011;8817;48.170;8.592;2023-03-14T06:32:17;4.03;;;3.93;;
17398;SDS011;8817;48.170;8.592;2023-03-14T06:34:45;4.20;;;4.10;;
17398;SDS011;8817;48.170;8.592;2023-03-14T06:37:12;4.23;;;4.03;;
17398;SDS011;8817;48.170;8.592;2023-03-14T06:39:39;4.30;;;4.10;;
17398;SDS011;8817;48.170;8.592;2023-03-14T06:42:06;3.70;;;3.70;;
17398;SDS011;8817;48.170;8.592;2023-03-14T06:44:33;3.87;;;3.80;;
17398;SDS011;8817;48.170;8.592;2023-03-14T06:47:01;3.97;;;3.97;;
17398;SDS011;8817;48.170;8.592;2023-03-14T06:49:28;3.80;;;3.80;;
17398;SDS011;8817;48.170;8.592;2023-03-14T06:51:55;3.97;;;3.90;;
17398;SDS011;8817;48.170;8.592;2023-03-14T06:54:22;3.80;;;3.80;;
17398;SDS011;8817;48.170;8.592;2023-03-14T06:56:49;4.07;;;4.07;;
17398;SDS011;8817;48.170;8.592;2023-03-14T06:59:16;5.03;;;4.10;;
17398;SDS011;8817;48.170;8.592;2023-03-14T07:01:43;4.17;;;4.07;;
17398;SDS011;8817;48.170;8.592;2023-03-14T07:04:11;3.70;;;3.70;;
17398;SDS011;8817;48.170;8.592;2023-03-14T07:06:38;3.87;;;3.80;;
17398;SDS011;8817;48.170;8.592;2023-03-14T07:09:09;3.50;;;3.50;;
17398;SDS011;8817;48.170;8.592;2023-03-14T07:11:36;3.60;;;3.60;;
17398;SDS011;8817;48.170;8.592;2023-03-14T07:14:03;4.00;;;3.80;;
17398;SDS011;8817;48.170;8.592;2023-03-14T07:16:30;3.90;;;3.90;;
17398;SDS011;8817;48.170;8.592;2023-03-14T07:18:58;4.10;;;4.00;;
17398;SDS011;8817;48.170;8.592;2023-03-14T07:21:26;3.70;;;3.70;;
17398;SDS011;8817;48.170;8.592;2023-03-14T07:23:53;3.70;;;3.70;;
17398;SDS011;8817;48.170;8.592;2023-03-14T07:26:20;3.60;;;3.60;;
17398;SDS011;8817;48.170;8.592;2023-03-14T07:28:47;3.80;;;3.70;;
17398;SDS011;8817;48.170;8.592;2023-03-14T07:31:14;4.00;;;3.93;;
17398;SDS011;8817;48.170;8.592;2023-03-14T07:33:41;4.00;;;3.90;;
17398;SDS011;8817;48.170;8.592;2023-03-14T07:36:08;4.10;;;4.00;;
17398;SDS011;8817;48.170;8.592;2023-03-14T07:38:37;3.50;;;3.50;;
17398;SDS011;8817;48.170;8.592;2023-03-14T07:41:04;3.93;;;3.87;;
17398;SDS011;8817;48.170;8.592;2023-03-14T07:43:32;3.77;;;3.77;;
17398;SDS011;8817;48.170;8.592;2023-03-14T07:45:59;3.97;;;3.97;;
17398;SDS011;8817;48.170;8.592;2023-03-14T07:48:26;3.93;;;3.83;;
17398;SDS011;8817;48.170;8.592;2023-03-14T07:50:54;3.80;;;3.80;;
17398;SDS011;8817;48.170;8.592;2023-03-14T07:53:22;3.40;;;3.40;;
17398;SDS011;8817;48.170;8.592;2023-03-14T07:55:51;3.77;;;3.70;;
17398;SDS011;8817;48.170;8.592;2023-03-14T07:58:18;3.80;;;3.60;;
17398;SDS011;8817;48.170;8.592;2023-03-14T08:00:46;3.73;;;3.70;;
17398;SDS011;8817;48.170;8.592;2023-03-14T08:03:13;3.60;;;3.40;;
17398;SDS011;8817;48.170;8.592;2023-03-14T08:05:41;3.43;;;3.43;;
17398;SDS011;8817;48.170;8.592;2023-03-14T08:08:08;3.53;;;3.53;;
17398;SDS011;8817;48.170;8.592;2023-03-14T08:10:35;3.33;;;3.23;;
17398;SDS011;8817;48.170;8.592;2023-03-14T08:13:03;3.30;;;3.30;;
17398;SDS011;8817;48.170;8.592;2023-03-14T08:15:30;3.20;;;3.20;;
17398;SDS011;8817;48.170;8.592;2023-03-14T08:17:57;3.13;;;3.13;;
17398;SDS011;8817;48.170;8.592;2023-03-14T08:20:25;3.20;;;3.20;;
17398;SDS011;8817;48.170;8.592;2023-03-14T08:22:54;3.23;;;3.23;;
17398;SDS011;8817;48.170;8.592;2023-03-14T08:25:23;3.50;;;3.50;;
17398;SDS011;8817;48.170;8.592;2023-03-14T08:27:50;3.40;;;3.40;;
17398;SDS011;8817;48.170;8.592;2023-03-14T08:30:19;3.80;;;3.70;;
17398;SDS011;8817;48.170;8.592;2023-03-14T08:32:46;3.37;;;3.37;;
17398;SDS011;8817;48.170;8.592;2023-03-14T08:35:14;3.60;;;3.60;;
17398;SDS011;8817;48.170;8.592;2023-03-14T08:37:41;3.50;;;3.50;;
17398;SDS011;8817;48.170;8.592;2023-03-14T08:40:08;3.43;;;3.43;;
17398;SDS011;8817;48.170;8.592;2023-03-14T08:42:37;3.77;;;3.73;;
17398;SDS011;8817;48.170;8.592;2023-03-14T08:45:04;4.30;;;4.10;;
17398;SDS011;8817;48.170;8.592;2023-03-14T08:47:34;3.70;;;3.70;;
17398;SDS011;8817;48.170;8.592;2023-03-14T08:50:01;3.60;;;3.60;;
17398;SDS011;8817;48.170;8.592;2023-03-14T08:52:29;3.50;;;3.50;;
17398;SDS011;8817;48.170;8.592;2023-03-14T08:54:56;3.80;;;3.70;;
17398;SDS011;8817;48.170;8.592;2023-03-14T08:57:23;3.67;;;3.67;;
17398;SDS011;8817;48.170;8.592;2023-03-14T08:59:52;3.53;;;3.53;;
17398;SDS011;8817;48.170;8.592;2023-03-14T09:02:20;3.70;;;3.60;;
17398;SDS011;8817;48.170;8.592;2023-03-14T09:04:49;3.30;;;3.30;;
17398;SDS011;8817;48.170;8.592;2023-03-14T09:07:17;3.53;;;3.53;;
17398;SDS011;8817;48.170;8.592;2023-03-14T09:09:44;3.40;;;3.40;;
17398;SDS011;8817;48.170;8.592;2023-03-14T09:12:11;3.67;;;3.60;;
17398;SDS011;8817;48.170;8.592;2023-03-14T09:14:38;3.30;;;3.30;;
17398;SDS011;8817;48.170;8.592;2023-03-14T09:17:05;3.40;;;3.40;;
17398;SDS011;8817;48.170;8.592;2023-03-14T09:19:32;3.23;;;3.23;;
17398;SDS011;8817;48.170;8.592;2023-03-14T09:22:01;3.57;;;3.47;;
17398;SDS011;8817;48.170;8.592;2023-03-14T09:24:28;3.30;;;3.30;;
17398;SDS011;8817;48.170;8.592;2023-03-14T09:26:55;3.50;;;3.50;;
17398;SDS011;8817;48.170;8.592;2023-03-14T09:29:23;3.40;;;3.40;;
17398;SDS011;8817;48.170;8.592;2023-03-14T09:31:50;3.50;;;3.50;;
17398;SDS011;8817;48.170;8.592;2023-03-14T09:34:17;3.30;;;3.30;;
17398;SDS011;8817;48.170;8.592;2023-03-14T09:36:44;3.40;;;3.40;;
17398;SDS011;8817;48.170;8.592;2023-03-14T09:39:12;3.60;;;3.60;;
17398;SDS011;8817;48.170;8.592;2023-03-14T09:41:41;3.40;;;3.40;;
17398;SDS011;8817;48.170;8.592;2023-03-14T09:44:10;4.00;;;3.80;;
17398;SDS011;8817;48.170;8.592;2023-03-14T09:46:39;3.50;;;3.50;;
17398;SDS011;8817;48.170;8.592;2023-03-14T09:49:09;3.70;;;3.70;;
17398;SDS011;8817;48.170;8.592;2023-03-14T09:51:38;3.97;;;3.50;;
17398;SDS011;8817;48.170;8.592;2023-03-14T09:54:08;3.60;;;3.60;;
17398;SDS011;8817;48.170;8.592;2023-03-14T09:56:49;3.57;;;3.50;;
17398;SDS011;8817;48.170;8.592;2023-03-14T09:59:17;3.67;;;3.57;;
17398;SDS011;8817;48.170;8.592;2023-03-14T10:01:44;3.53;;;3.53;;
17398;SDS011;8817;48.170;8.592;2023-03-14T10:04:13;3.30;;;3.30;;
17398;SDS011;8817;48.170;8.592;2023-03-14T10:06:43;3.57;;;3.57;;
17398;SDS011;8817;48.170;8.592;2023-03-14T10:09:10;3.50;;;3.50;;
17398;SDS011;8817;48.170;8.592;2023-03-14T10:11:44;3.30;;;3.30;;
17398;SDS011;8817;48.170;8.592;2023-03-14T10:14:11;3.53;;;3.53;;
17398;SDS011;8817;48.170;8.592;2023-03-14T10:16:41;3.47;;;3.47;;
17398;SDS011;8817;48.170;8.592;2023-03-14T10:19:10;3.63;;;3.63;;
17398;SDS011;8817;48.170;8.592;2023-03-14T10:21:39;3.30;;;3.30;;
17398;SDS011;8817;48.170;8.592;2023-03-14T10:24:16;3.70;;;3.70;;
17398;SDS011;8817;48.170;8.592;2023-03-14T10:26:48;3.40;;;3.40;;
17398;SDS011;8817;48.170;8.592;2023-03-14T10:29:18;3.60;;;3.60;;
17398;SDS011;8817;48.170;8.592;2023-03-14T10:31:47;3.50;;;3.50;;
17398;SDS011;8817;48.170;8.592;2023-03-14T10:34:17;3.70;;;3.60;;
17398;SDS011;8817;48.170;8.592;2023-03-14T10:36:53;3.80;;;3.80;;
17398;SDS011;8817;48.170;8.592;2023-03-14T10:39:25;4.07;;;4.03;;
17398;SDS011;8817;48.170;8.592;2023-03-14T10:42:01;4.07;;;4.07;;
17398;SDS011;8817;48.170;8.592;2023-03-14T10:44:30;3.90;;;3.90;;
17398;SDS011;8817;48.170;8.592;2023-03-14T10:46:58;3.53;;;3.53;;
17398;SDS011;8817;48.170;8.592;2023-03-14T10:49:28;3.87;;;3.87;;
17398;SDS011;8817;48.170;8.592;2023-03-14T10:52:00;3.90;;;3.90;;
17398;SDS011;8817;48.170;8.592;2023-03-14T10:54:29;3.80;;;3.80;;
17398;SDS011;8817;48.170;8.592;2023-03-14T10:56:58;3.70;;;3.70;;
17398;SDS011;8817;48.170;8.592;2023-03-14T10:59:27;3.60;;;3.60;;
17398;SDS011;8817;48.170;8.592;2023-03-14T11:01:57;3.90;;;3.90;;
17398;SDS011;8817;48.170;8.592;2023-03-14T11:04:38;3.70;;;3.70;;
17398;SDS011;8817;48.170;8.592;2023-03-14T11:07:14;3.60;;;3.60;;
17398;SDS011;8817;48.170;8.592;2023-03-14T11:09:48;4.03;;;3.97;;
17398;SDS011;8817;48.170;8.592;2023-03-14T11:12:29;3.90;;;3.90;;
17398;SDS011;8817;48.170;8.592;2023-03-14T11:15:05;3.50;;;3.50;;
17398;SDS011;8817;48.170;8.592;2023-03-14T11:17:41;3.80;;;3.80;;
17398;SDS011;8817;48.170;8.592;2023-03-14T11:20:17;3.80;;;3.70;;
17398;SDS011;8817;48.170;8.592;2023-03-14T11:22:54;4.20;;;4.10;;
17398;SDS011;8817;48.170;8.592;2023-03-14T11:25:26;3.80;;;3.80;;
17398;SDS011;8817;48.170;8.592;2023-03-14T11:28:01;4.07;;;3.87;;
17398;SDS011;8817;48.170;8.592;2023-03-14T11:30:35;3.80;;;3.70;;
17398;SDS011;8817;48.170;8.592;2023-03-14T11:33:10;4.20;;;4.10;;
17398;SDS011;8817;48.170;8.592;2023-03-14T11:35:42;3.63;;;3.63;;
17398;SDS011;8817;48.170;8.592;2023-03-14T11:38:15;3.73;;;3.70;;
17398;SDS011;8817;48.170;8.592;2023-03-14T11:40:50;3.60;;;3.60;;
17398;SDS011;8817;48.170;8.592;2023-03-14T11:43:24;4.00;;;3.90;;
17398;SDS011;8817;48.170;8.592;2023-03-14T11:45:54;4.00;;;3.90;;
17398;SDS011;8817;48.170;8.592;2023-03-14T11:48:29;3.90;;;3.90;;
17398;SDS011;8817;48.170;8.592;2023-03-14T11:51:04;3.87;;;3.80;;
17398;SDS011;8817;48.170;8.592;2023-03-14T11:53:36;3.83;;;3.73;;
17398;SDS011;8817;48.170;8.592;2023-03-14T11:56:10;4.20;;;4.00;;
17398;SDS011;8817;48.170;8.592;2023-03-14T11:58:47;3.80;;;3.80;;
17398;SDS011;8817;48.170;8.592;2023-03-14T12:01:20;3.70;;;3.70;;
17398;SDS011;8817;48.170;8.592;2023-03-14T12:03:52;3.50;;;3.50;;
17398;SDS011;8817;48.170;8.592;2023-03-14T12:06:26;3.93;;;3.93;;
17398;SDS011;8817;48.170;8.592;2023-03-14T12:08:55;4.07;;;3.90;;
17398;SDS011;8817;48.170;8.592;2023-03-14T12:11:27;4.20;;;4.10;;
17398;SDS011;8817;48.170;8.592;2023-03-14T12:14:02;4.30;;;4.20;;
17398;SDS011;8817;48.170;8.592;2023-03-14T12:16:33;3.80;;;3.80;;
17398;SDS011;8817;48.170;8.592;2023-03-14T12:21:53;4.17;;;4.07;;
17398;SDS011;8817;48.170;8.592;2023-03-14T12:24:24;4.30;;;4.20;;
17398;SDS011;8817;48.170;8.592;2023-03-14T12:26:54;4.07;;;4.00;;
17398;SDS011;8817;48.170;8.592;2023-03-14T12:29:24;3.93;;;3.93;;
17398;SDS011;8817;48.170;8.592;2023-03-14T12:32:06;4.30;;;4.20;;
17398;SDS011;8817;48.170;8.592;2023-03-14T12:34:48;4.13;;;4.03;;
17398;SDS011;8817;48.170;8.592;2023-03-14T12:37:21;4.20;;;4.10;;
17398;SDS011;8817;48.170;8.592;2023-03-14T12:39:58;4.30;;;4.20;;
17398;SDS011;8817;48.170;8.592;2023-03-14T12:42:42;4.60;;;4.50;;
17398;SDS011;8817;48.170;8.592;2023-03-14T12:45:25;4.17;;;4.07;;
17398;SDS011;8817;48.170;8.592;2023-03-14T12:48:01;4.00;;;3.90;;
17398;SDS011;8817;48.170;8.592;2023-03-14T12:50:36;4.50;;;4.37;;
17398;SDS011;8817;48.170;8.592;2023-03-14T12:56:09;4.30;;;4.20;;
17398;SDS011;8817;48.170;8.592;2023-03-14T12:58:48;4.43;;;4.33;;
17398;SDS011;8817;48.170;8.592;2023-03-14T13:01:25;4.57;;;4.47;;
17398;SDS011;8817;48.170;8.592;2023-03-14T13:03:52;4.37;;;4.20;;
17398;SDS011;8817;48.170;8.592;2023-03-14T13:12:02;4.13;;;4.03;;
17398;SDS011;8817;48.170;8.592;2023-03-14T13:14:35;3.90;;;3.90;;
17398;SDS011;8817;48.170;8.592;2023-03-14T13:17:10;4.10;;;4.00;;
17398;SDS011;8817;48.170;8.592;2023-03-14T13:19:38;3.93;;;3.83;;
17398;SDS011;8817;48.170;8.592;2023-03-14T13:22:06;3.83;;;3.73;;
17398;SDS011;8817;48.170;8.592;2023-03-14T13:24:41;4.40;;;4.00;;
17398;SDS011;8817;48.170;8.592;2023-03-14T13:27:08;4.10;;;3.90;;
17398;SDS011;8817;48.170;8.592;2023-03-14T13:29:44;3.47;;;3.47;;
17398;SDS011;8817;48.170;8.592;2023-03-14T13:32:16;4.33;;;3.80;;
17398;SDS011;8817;48.170;8.592;2023-03-14T13:34:46;3.33;;;3.33;;
17398;SDS011;8817;48.170;8.592;2023-03-14T13:37:16;3.50;;;3.40;;
17398;SDS011;8817;48.170;8.592;2023-03-14T13:39:48;3.60;;;3.50;;
17398;SDS011;8817;48.170;8.592;2023-03-14T13:42:16;3.57;;;3.50;;
17398;SDS011;8817;48.170;8.592;2023-03-14T13:44:44;3.40;;;3.40;;
17398;SDS011;8817;48.170;8.592;2023-03-14T13:47:14;4.50;;;4.20;;
17398;SDS011;8817;48.170;8.592;2023-03-14T13:49:44;3.83;;;3.63;;
17398;SDS011;8817;48.170;8.592;2023-03-14T13:52:21;3.70;;;3.60;;
17398;SDS011;8817;48.170;8.592;2023-03-14T13:54:55;3.80;;;3.60;;
17398;SDS011;8817;48.170;8.592;2023-03-14T13:57:23;3.60;;;3.60;;
17398;SDS011;8817;48.170;8.592;2023-03-14T14:02:44;3.67;;;3.60;;
17398;SDS011;8817;48.170;8.592;2023-03-14T14:05:12;3.90;;;3.80;;
17398;SDS011;8817;48.170;8.592;2023-03-14T14:07:39;3.73;;;3.73;;
17398;SDS011;8817;48.170;8.592;2023-03-14T14:10:08;3.60;;;3.60;;
17398;SDS011;8817;48.170;8.592;2023-03-14T14:12:38;4.30;;;4.10;;
17398;SDS011;8817;48.170;8.592;2023-03-14T14:15:07;4.13;;;4.03;;
17398;SDS011;8817;48.170;8.592;2023-03-14T14:17:38;4.20;;;3.90;;
17398;SDS011;8817;48.170;8.592;2023-03-14T14:20:13;3.60;;;3.50;;
17398;SDS011;8817;48.170;8.592;2023-03-14T14:22:45;4.13;;;3.93;;
17398;SDS011;8817;48.170;8.592;2023-03-14T14:25:12;4.37;;;3.97;;
17398;SDS011;8817;48.170;8.592;2023-03-14T14:27:41;4.27;;;4.17;;
17398;SDS011;8817;48.170;8.592;2023-03-14T14:30:24;3.90;;;3.80;;
17398;SDS011;8817;48.170;8.592;2023-03-14T14:33:06;3.83;;;3.73;;
17398;SDS011;8817;48.170;8.592;2023-03-14T14:35:39;3.50;;;3.50;;
17398;SDS011;8817;48.170;8.592;2023-03-14T14:38:10;3.60;;;3.60;;
17398;SDS011;8817;48.170;8.592;2023-03-14T14:40:45;3.90;;;3.80;;
17398;SDS011;8817;48.170;8.592;2023-03-14T14:43:15;3.60;;;3.50;;
17398;SDS011;8817;48.170;8.592;2023-03-14T14:45:44;3.80;;;3.60;;
17398;SDS011;8817;48.170;8.592;2023-03-14T14:48:13;3.77;;;3.67;;
17398;SDS011;8817;48.170;8.592;2023-03-14T14:50:50;3.90;;;3.80;;
17398;SDS011;8817;48.170;8.592;2023-03-14T14:53:26;3.97;;;3.87;;
17398;SDS011;8817;48.170;8.592;2023-03-14T14:55:55;3.53;;;3.43;;
17398;SDS011;8817;48.170;8.592;2023-03-14T14:58:25;3.60;;;3.40;;
17398;SDS011;8817;48.170;8.592;2023-03-14T15:00:55;3.27;;;3.27;;
17398;SDS011;8817;48.170;8.592;2023-03-14T15:03:28;3.20;;;3.20;;
17398;SDS011;8817;48.170;8.592;2023-03-14T15:05:58;4.17;;;3.87;;
17398;SDS011;8817;48.170;8.592;2023-03-14T15:08:26;3.40;;;3.30;;
17398;SDS011;8817;48.170;8.592;2023-03-14T15:10:53;3.20;;;3.20;;
17398;SDS011;8817;48.170;8.592;2023-03-14T15:13:20;3.40;;;3.30;;
17398;SDS011;8817;48.170;8.592;2023-03-14T15:15:47;3.20;;;3.20;;
17398;SDS011;8817;48.170;8.592;2023-03-14T15:18:21;3.30;;;3.20;;
17398;SDS011;8817;48.170;8.592;2023-03-14T15:20:49;3.50;;;3.40;;
17398;SDS011;8817;48.170;8.592;2023-03-14T15:23:18;3.30;;;3.30;;
17398;SDS011;8817;48.170;8.592;2023-03-14T15:25:46;3.60;;;3.50;;
17398;SDS011;8817;48.170;8.592;2023-03-14T15:28:14;3.40;;;3.30;;
17398;SDS011;8817;48.170;8.592;2023-03-14T15:30:45;5.57;;;5.07;;